createdAt,value
2022-07-29T00:04:14.125Z,98.28
2022-07-29T00:09:17.590Z,98.25
2022-07-29T00:14:20.880Z,98.23
2022-07-29T00:19:24.216Z,98.10
2022-07-29T00:24:28.778Z,98.62
2022-07-29T00:29:34.182Z,98.79
2022-07-29T00:34:56.659Z,98.71
2022-07-29T00:40:00.072Z,99.67
2022-07-29T00:45:03.856Z,99.72
2022-07-29T00:50:09.791Z,99.17
2022-07-29T00:55:16.058Z,99.85
2022-07-29T01:00:23.240Z,100.00
2022-07-29T01:05:48.458Z,100.00
2022-07-29T01:10:53.727Z,100.00
2022-07-29T01:16:04.873Z,100.00
2022-07-29T01:21:52.586Z,99.99
2022-07-29T01:27:10.179Z,99.74
2022-07-29T01:32:27.982Z,99.62
2022-07-29T01:37:51.675Z,99.95
2022-07-29T01:42:58.743Z,99.91
2022-07-29T01:48:08.097Z,99.90
2022-07-29T01:53:14.224Z,100.00
2022-07-29T01:58:20.574Z,100.00
2022-07-29T02:03:24.962Z,99.93
2022-07-29T02:08:30.607Z,99.84
2022-07-29T02:13:36.972Z,100.00
2022-07-29T02:18:43.246Z,100.00
2022-07-29T02:23:51.355Z,100.00
2022-07-29T02:28:58.683Z,100.00
2022-07-29T02:34:04.942Z,100.00
2022-07-29T02:39:10.821Z,100.00
2022-07-29T02:44:23.051Z,100.00
2022-07-29T02:49:40.229Z,100.00
2022-07-29T02:54:48.665Z,100.00
2022-07-29T02:59:55.877Z,100.00
2022-07-29T03:05:01.088Z,100.00
2022-07-29T03:10:07.696Z,100.00
2022-07-29T03:15:17.622Z,100.00
2022-07-29T03:20:22.050Z,100.00
2022-07-29T03:25:28.516Z,100.00
2022-07-29T03:30:32.188Z,100.00
2022-07-29T03:35:35.458Z,100.00
2022-07-29T03:40:45.088Z,100.00
2022-07-29T03:45:54.742Z,100.00
2022-07-29T03:50:58.123Z,100.00
2022-07-29T03:56:03.780Z,100.00
2022-07-29T04:01:07.474Z,100.00
2022-07-29T04:06:10.663Z,99.49
2022-07-29T04:11:14.155Z,98.05
2022-07-29T04:16:17.461Z,97.46
2022-07-29T04:21:20.854Z,95.71
2022-07-29T04:26:24.402Z,92.78
2022-07-29T04:31:27.881Z,85.02
2022-07-29T04:36:31.205Z,75.74
2022-07-29T04:41:34.857Z,68.49
2022-07-29T04:46:38.507Z,62.76
2022-07-29T04:51:41.698Z,56.81
2022-07-29T04:56:45.298Z,52.66
2022-07-29T05:01:48.613Z,48.92
2022-07-29T05:06:51.893Z,47.32
2022-07-29T05:11:55.144Z,44.06
2022-07-29T05:16:58.411Z,42.25
2022-07-29T05:22:01.733Z,40.59
2022-07-29T05:27:05.138Z,39.27
2022-07-29T05:32:08.732Z,38.23
2022-07-29T05:37:12.243Z,37.10
2022-07-29T05:42:15.664Z,36.80
2022-07-29T05:47:19.093Z,35.74
2022-07-29T05:52:22.978Z,35.43
2022-07-29T05:57:26.700Z,35.15
2022-07-29T06:02:29.938Z,35.25
2022-07-29T06:07:33.951Z,36.07
2022-07-29T06:12:39.751Z,36.38
2022-07-29T06:18:00.095Z,35.41
2022-07-29T06:23:05.823Z,34.17
2022-07-29T06:28:09.114Z,34.35
2022-07-29T06:33:18.068Z,35.02
2022-07-29T06:38:30.747Z,35.41
2022-07-29T06:43:50.152Z,35.80
2022-07-29T06:48:55.531Z,36.01
2022-07-29T06:54:02.243Z,36.34
2022-07-29T06:59:16.842Z,36.04
2022-07-29T07:04:20.811Z,35.99
2022-07-29T07:09:24.736Z,34.87
2022-07-29T07:14:43.771Z,34.23
2022-07-29T07:19:47.030Z,34.15
2022-07-29T07:24:50.278Z,33.29
2022-07-29T07:29:53.552Z,33.00
2022-07-29T07:34:58.227Z,31.94
2022-07-29T07:40:03.336Z,29.81
2022-07-29T07:45:16.609Z,30.16
2022-07-29T07:50:20.055Z,29.96
2022-07-29T07:55:23.413Z,30.16
2022-07-29T08:00:26.756Z,30.19
2022-07-29T08:05:30.039Z,30.06
2022-07-29T08:10:52.355Z,29.79
2022-07-29T08:15:59.286Z,30.17
2022-07-29T08:21:02.843Z,29.33
2022-07-29T08:26:11.552Z,28.29
2022-07-29T08:31:15.712Z,28.49
2022-07-29T08:36:19.325Z,29.30
2022-07-29T08:41:23.247Z,29.22
2022-07-29T08:46:26.938Z,28.93
2022-07-29T08:51:33.080Z,28.37
2022-07-29T08:56:36.903Z,28.74
2022-07-29T09:01:42.520Z,29.02
2022-07-29T09:06:52.760Z,29.27
2022-07-29T09:11:56.384Z,29.11
2022-07-29T09:17:01.324Z,28.76
2022-07-29T09:22:07.218Z,28.23
2022-07-29T09:27:22.490Z,28.80
2022-07-29T09:32:26.110Z,28.89
2022-07-29T09:37:30.426Z,28.86
2022-07-29T09:42:35.128Z,29.34
2022-07-29T09:47:51.907Z,29.94
2022-07-29T09:52:55.149Z,30.41
2022-07-29T09:58:18.836Z,32.43
2022-07-29T10:03:54.103Z,34.53
2022-07-29T10:09:11.859Z,36.08
2022-07-29T10:14:16.479Z,35.88
2022-07-29T10:19:20.069Z,36.47
2022-07-29T10:24:23.446Z,37.24
2022-07-29T10:29:28.107Z,36.18
2022-07-29T10:35:04.229Z,35.88
2022-07-29T10:40:48.493Z,36.75
2022-07-29T10:45:58.677Z,37.01
2022-07-29T10:51:03.914Z,38.18
2022-07-29T10:56:32.380Z,39.31
2022-07-29T11:01:37.034Z,39.16
2022-07-29T11:06:59.823Z,38.65
2022-07-29T11:12:39.764Z,38.20
2022-07-29T11:17:55.049Z,37.84
2022-07-29T11:23:26.735Z,37.89
2022-07-29T11:28:31.419Z,37.88
2022-07-29T11:33:55.842Z,37.11
2022-07-29T11:39:37.079Z,37.02
2022-07-29T11:44:58.556Z,37.27
2022-07-29T11:50:11.209Z,37.65
2022-07-29T11:55:17.345Z,37.04
2022-07-29T12:00:34.856Z,37.66
2022-07-29T12:05:48.145Z,38.45
2022-07-29T12:10:52.904Z,39.03
2022-07-29T12:16:00.086Z,39.22
2022-07-29T12:21:06.857Z,38.58
2022-07-29T12:26:10.843Z,38.15
2022-07-29T12:31:43.848Z,38.92
2022-07-29T12:36:39.925Z,39.56
2022-07-29T12:41:43.725Z,38.46
2022-07-29T12:46:49.820Z,38.43
2022-07-29T12:51:53.083Z,37.18
2022-07-29T12:57:01.700Z,37.20
2022-07-29T13:02:05.837Z,37.28
2022-07-29T13:07:10.471Z,36.78
2022-07-29T13:12:15.502Z,37.05
2022-07-29T13:17:24.164Z,37.36
2022-07-29T13:22:27.842Z,37.39
2022-07-29T13:27:33.838Z,38.03
2022-07-29T13:32:39.193Z,37.48
2022-07-29T13:37:42.702Z,37.90
2022-07-29T13:42:46.641Z,38.73
2022-07-29T13:47:50.641Z,38.63
2022-07-29T13:52:54.429Z,37.91
2022-07-29T13:57:58.043Z,38.38
2022-07-29T14:03:01.752Z,38.01
2022-07-29T14:08:05.514Z,38.17
2022-07-29T14:13:24.579Z,38.48
2022-07-29T14:18:29.237Z,38.84
2022-07-29T14:23:32.613Z,38.70
2022-07-29T14:28:39.011Z,39.01
2022-07-29T14:33:46.249Z,38.72
2022-07-29T14:38:54.119Z,38.56
2022-07-29T14:43:57.624Z,38.47
2022-07-29T14:49:04.070Z,38.11
2022-07-29T14:54:10.818Z,38.43
2022-07-29T14:59:16.701Z,38.66
2022-07-29T15:04:20.263Z,38.16
2022-07-29T15:09:25.537Z,38.18
2022-07-29T15:14:29.200Z,38.84
2022-07-29T15:19:32.863Z,39.25
2022-07-29T15:24:36.413Z,39.34
2022-07-29T15:29:40.495Z,39.88
2022-07-29T15:34:46.486Z,39.59
2022-07-29T15:39:55.024Z,40.02
2022-07-29T15:45:10.933Z,40.03
2022-07-29T15:50:20.468Z,40.08
2022-07-29T15:55:24.659Z,39.96
2022-07-29T16:00:28.652Z,39.46
2022-07-29T16:05:32.881Z,39.33
2022-07-29T16:10:39.368Z,39.44
2022-07-29T16:16:01.997Z,39.35
2022-07-29T16:21:07.783Z,40.13
2022-07-29T16:26:14.378Z,40.63
2022-07-29T16:31:18.893Z,40.65
2022-07-29T16:36:22.311Z,41.09
2022-07-29T16:41:29.852Z,40.98
2022-07-29T16:46:37.863Z,41.25
2022-07-29T16:51:44.525Z,41.55
2022-07-29T16:56:47.939Z,41.96
2022-07-29T17:01:51.235Z,42.45
2022-07-29T17:06:57.595Z,42.79
2022-07-29T17:12:01.368Z,42.66
2022-07-29T17:17:05.729Z,42.77
2022-07-29T17:22:21.911Z,42.63
2022-07-29T17:27:26.970Z,42.59
2022-07-29T17:32:36.973Z,42.69
2022-07-29T17:37:40.425Z,43.31
2022-07-29T17:42:43.983Z,43.65
2022-07-29T17:47:47.371Z,44.16
2022-07-29T17:52:50.806Z,44.62
2022-07-29T17:57:57.192Z,45.08
2022-07-29T18:03:03.545Z,45.69
2022-07-29T18:08:10.291Z,46.48
2022-07-29T18:13:14.110Z,46.97
2022-07-29T18:18:19.484Z,47.02
2022-07-29T18:23:22.851Z,47.68
2022-07-29T18:28:26.100Z,48.02
2022-07-29T18:33:29.810Z,48.45
2022-07-29T18:38:35.743Z,49.08
2022-07-29T18:43:40.410Z,49.85
2022-07-29T18:48:44.943Z,50.48
2022-07-29T18:53:52.813Z,51.81
2022-07-29T18:58:56.779Z,52.38
2022-07-29T19:04:00.816Z,53.11
2022-07-29T19:09:04.780Z,54.02
2022-07-29T19:14:08.410Z,54.83
2022-07-29T19:19:12.195Z,55.53
2022-07-29T19:24:15.876Z,56.03
2022-07-29T19:29:19.578Z,57.17
2022-07-29T19:34:22.806Z,58.72
2022-07-29T19:39:34.705Z,59.27
2022-07-29T19:44:39.074Z,60.52
2022-07-29T19:49:42.587Z,23.74
2022-07-29T19:54:45.780Z,-1.00
2022-07-29T19:59:49.025Z,-1.00
2022-07-29T20:04:52.928Z,-1.00
2022-07-29T20:09:56.588Z,-1.00
2022-07-29T20:15:00.133Z,-1.00
2022-07-29T20:20:05.020Z,-1.00
2022-07-29T20:25:12.246Z,-1.00
2022-07-29T20:30:16.779Z,-1.00
2022-07-29T20:35:24.710Z,-1.00
2022-07-29T20:40:30.007Z,-1.00
2022-07-29T20:45:34.621Z,-1.00
2022-07-29T20:50:37.788Z,-1.00
2022-07-29T20:55:41.197Z,-1.00
2022-07-29T21:00:44.460Z,-1.00
2022-07-29T21:05:50.815Z,-1.00
2022-07-29T21:10:54.304Z,-1.00
2022-07-29T21:16:04.307Z,-1.00
2022-07-29T21:21:10.291Z,-1.00
2022-07-29T21:26:14.066Z,-1.00
2022-07-29T21:31:18.745Z,-1.00
2022-07-29T21:36:47.251Z,-1.00
2022-07-29T21:41:46.456Z,-1.00
2022-07-29T21:46:50.124Z,-1.00
2022-07-29T21:51:53.310Z,-1.00
2022-07-29T21:56:56.699Z,-1.00
2022-07-29T22:02:01.222Z,-1.00
2022-07-29T22:07:05.168Z,-1.00
2022-07-29T22:12:08.482Z,-1.00
2022-07-29T22:17:11.772Z,-1.00
2022-07-29T22:22:15.171Z,-1.00
2022-07-29T22:27:18.500Z,-1.00
2022-07-29T22:32:21.679Z,-1.00
2022-07-29T22:37:24.995Z,-1.00
2022-07-29T22:42:28.276Z,-1.00
2022-07-29T22:47:38.992Z,-1.00
2022-07-29T22:52:50.062Z,-1.00
2022-07-29T22:57:53.291Z,-1.00
2022-07-29T23:02:56.581Z,-1.00
2022-07-29T23:08:00.160Z,-1.00
2022-07-29T23:13:03.405Z,-1.00
2022-07-29T23:18:08.148Z,-1.00
2022-07-29T23:23:11.748Z,-1.00
2022-07-29T23:28:14.998Z,-1.00
2022-07-29T23:33:19.952Z,-1.00
2022-07-29T23:38:26.307Z,-1.00
2022-07-29T23:43:29.587Z,-1.00
2022-07-29T23:48:32.793Z,-1.00
2022-07-29T23:53:38.116Z,-1.00
2022-07-29T23:58:56.838Z,-1.00
